sensor_id;sensor_type;location;lat;lon;timestamp;pressure;altitude;pressure_sealevel;temperature;humidity
21988;BME280;11158;53.404;-1.510;2023-05-01T00:02:10;100553.38;;;17.11;53.96
21988;BME280;11158;53.404;-1.510;2023-05-01T00:04:54;100553.47;;;17.04;53.96
21988;BME280;11158;53.404;-1.510;2023-05-01T00:07:39;100559.94;;;17.22;53.30
21988;BME280;11158;53.404;-1.510;2023-05-01T00:10:23;100557.16;;;17.10;53.57
21988;BME280;11158;53.404;-1.510;2023-05-01T00:13:07;100560.19;;;17.38;52.91
21988;BME280;11158;53.404;-1.510;2023-05-01T00:15:52;100553.06;;;17.74;52.02
21988;BME280;11158;53.404;-1.510;2023-05-01T00:18:37;100553.72;;;17.40;52.91
21988;BME280;11158;53.404;-1.510;2023-05-01T00:21:22;100548.97;;;16.98;54.03
21988;BME280;11158;53.404;-1.510;2023-05-01T00:24:06;100548.59;;;17.13;53.58
21988;BME280;11158;53.404;-1.510;2023-05-01T00:26:50;100539.81;;;17.17;53.23
21988;BME280;11158;53.404;-1.510;2023-05-01T00:29:34;100540.53;;;16.63;54.00
21988;BME280;11158;53.404;-1.510;2023-05-01T00:32:18;100540.84;;;16.80;53.54
21988;BME280;11158;53.404;-1.510;2023-05-01T00:35:02;100531.56;;;16.69;53.55
21988;BME280;11158;53.404;-1.510;2023-05-01T00:37:46;100524.59;;;16.86;53.06
21988;BME280;11158;53.404;-1.510;2023-05-01T00:40:30;100519.44;;;16.53;54.09
21988;BME280;11158;53.404;-1.510;2023-05-01T00:43:14;100522.44;;;16.45;54.27
21988;BME280;11158;53.404;-1.510;2023-05-01T00:46:00;100517.91;;;16.39;54.40
21988;BME280;11158;53.404;-1.510;2023-05-01T00:48:44;100513.78;;;16.36;53.88
21988;BME280;11158;53.404;-1.510;2023-05-01T00:51:30;100510.38;;;16.47;54.03
21988;BME280;11158;53.404;-1.510;2023-05-01T00:54:14;100512.50;;;16.39;53.92
21988;BME280;11158;53.404;-1.510;2023-05-01T00:56:58;100511.03;;;16.43;53.95
21988;BME280;11158;53.404;-1.510;2023-05-01T00:59:42;100505.06;;;16.59;53.52
21988;BME280;11158;53.404;-1.510;2023-05-01T01:02:26;100508.81;;;16.83;52.71
21988;BME280;11158;53.404;-1.510;2023-05-01T01:05:10;100506.66;;;16.92;52.51
21988;BME280;11158;53.404;-1.510;2023-05-01T01:08:14;100503.81;;;16.87;52.44
21988;BME280;11158;53.404;-1.510;2023-05-01T01:11:23;100495.84;;;16.67;53.17
21988;BME280;11158;53.404;-1.510;2023-05-01T01:14:19;100497.59;;;16.36;53.19
21988;BME280;11158;53.404;-1.510;2023-05-01T01:17:15;100483.56;;;16.27;53.95
21988;BME280;11158;53.404;-1.510;2023-05-01T01:23:18;100479.75;;;15.78;55.73
21988;BME280;11158;53.404;-1.510;2023-05-01T01:26:17;100474.44;;;15.58;55.75
21988;BME280;11158;53.404;-1.510;2023-05-01T01:35:20;100472.94;;;16.01;54.38
21988;BME280;11158;53.404;-1.510;2023-05-01T01:38:20;100480.75;;;15.39;56.68
21988;BME280;11158;53.404;-1.510;2023-05-01T01:41:29;100480.66;;;15.59;56.23
21988;BME280;11158;53.404;-1.510;2023-05-01T01:44:18;100471.31;;;16.00;54.17
21988;BME280;11158;53.404;-1.510;2023-05-01T01:47:06;100463.50;;;16.17;53.69
21988;BME280;11158;53.404;-1.510;2023-05-01T01:49:52;100461.50;;;16.05;54.14
21988;BME280;11158;53.404;-1.510;2023-05-01T01:52:37;100458.16;;;16.10;53.89
21988;BME280;11158;53.404;-1.510;2023-05-01T01:55:26;100455.25;;;16.37;53.40
21988;BME280;11158;53.404;-1.510;2023-05-01T01:58:14;100457.44;;;16.46;52.83
21988;BME280;11158;53.404;-1.510;2023-05-01T02:01:00;100458.78;;;16.37;52.95
21988;BME280;11158;53.404;-1.510;2023-05-01T02:03:46;100461.16;;;16.27;53.37
21988;BME280;11158;53.404;-1.510;2023-05-01T02:06:32;100448.13;;;16.42;53.10
21988;BME280;11158;53.404;-1.510;2023-05-01T02:09:18;100448.00;;;16.55;52.66
21988;BME280;11158;53.404;-1.510;2023-05-01T02:12:05;100448.88;;;16.56;52.86
21988;BME280;11158;53.404;-1.510;2023-05-01T02:14:50;100443.53;;;16.49;52.38
21988;BME280;11158;53.404;-1.510;2023-05-01T02:17:36;100447.94;;;16.62;52.37
21988;BME280;11158;53.404;-1.510;2023-05-01T02:20:22;100444.16;;;16.70;52.10
21988;BME280;11158;53.404;-1.510;2023-05-01T02:23:08;100440.84;;;16.68;51.99
21988;BME280;11158;53.404;-1.510;2023-05-01T02:25:53;100442.00;;;16.53;52.54
21988;BME280;11158;53.404;-1.510;2023-05-01T02:28:39;100442.63;;;16.55;52.65
21988;BME280;11158;53.404;-1.510;2023-05-01T02:31:25;100439.03;;;16.62;52.44
21988;BME280;11158;53.404;-1.510;2023-05-01T02:34:09;100439.66;;;16.64;52.08
21988;BME280;11158;53.404;-1.510;2023-05-01T02:36:54;100434.38;;;16.50;52.44
21988;BME280;11158;53.404;-1.510;2023-05-01T02:39:38;100435.25;;;16.44;52.57
21988;BME280;11158;53.404;-1.510;2023-05-01T02:42:23;100432.84;;;16.36;52.73
21988;BME280;11158;53.404;-1.510;2023-05-01T02:45:17;100426.97;;;16.21;53.29
21988;BME280;11158;53.404;-1.510;2023-05-01T02:48:04;100423.81;;;16.24;53.23
21988;BME280;11158;53.404;-1.510;2023-05-01T02:50:50;100424.53;;;16.38;52.92
21988;BME280;11158;53.404;-1.510;2023-05-01T02:53:35;100424.53;;;16.38;52.87
21988;BME280;11158;53.404;-1.510;2023-05-01T02:56:19;100423.09;;;16.35;53.15
21988;BME280;11158;53.404;-1.510;2023-05-01T02:59:04;100421.56;;;16.21;53.58
21988;BME280;11158;53.404;-1.510;2023-05-01T03:01:47;100430.53;;;16.15;53.88
21988;BME280;11158;53.404;-1.510;2023-05-01T03:04:32;100424.66;;;15.67;55.71
21988;BME280;11158;53.404;-1.510;2023-05-01T03:07:16;100432.63;;;15.49;56.39
21988;BME280;11158;53.404;-1.510;2023-05-01T03:10:05;100413.44;;;16.02;55.17
21988;BME280;11158;53.404;-1.510;2023-05-01T03:12:50;100413.94;;;16.18;54.51
21988;BME280;11158;53.404;-1.510;2023-05-01T03:15:34;100413.97;;;16.36;53.85
21988;BME280;11158;53.404;-1.510;2023-05-01T03:18:19;100417.00;;;16.21;54.24
21988;BME280;11158;53.404;-1.510;2023-05-01T03:21:03;100417.59;;;16.23;53.97
21988;BME280;11158;53.404;-1.510;2023-05-01T03:23:47;100411.06;;;16.12;54.56
21988;BME280;11158;53.404;-1.510;2023-05-01T03:26:31;100419.09;;;15.94;54.92
21988;BME280;11158;53.404;-1.510;2023-05-01T03:29:15;100428.16;;;15.75;56.10
21988;BME280;11158;53.404;-1.510;2023-05-01T03:31:59;100425.84;;;15.78;55.81
21988;BME280;11158;53.404;-1.510;2023-05-01T03:34:44;100437.13;;;15.55;56.09
21988;BME280;11158;53.404;-1.510;2023-05-01T03:37:28;100432.31;;;15.70;56.07
21988;BME280;11158;53.404;-1.510;2023-05-01T03:40:12;100428.75;;;15.77;55.65
21988;BME280;11158;53.404;-1.510;2023-05-01T03:42:56;100427.72;;;15.39;56.81
21988;BME280;11158;53.404;-1.510;2023-05-01T03:45:42;100436.44;;;15.66;55.89
21988;BME280;11158;53.404;-1.510;2023-05-01T03:48:26;100432.78;;;15.93;54.89
21988;BME280;11158;53.404;-1.510;2023-05-01T03:51:10;100435.31;;;16.12;54.41
21988;BME280;11158;53.404;-1.510;2023-05-01T03:53:54;100432.09;;;16.29;54.18
21988;BME280;11158;53.404;-1.510;2023-05-01T03:56:41;100440.66;;;16.44;53.69
21988;BME280;11158;53.404;-1.510;2023-05-01T03:59:25;100436.47;;;16.48;53.65
21988;BME280;11158;53.404;-1.510;2023-05-01T04:02:09;100437.47;;;16.54;53.16
21988;BME280;11158;53.404;-1.510;2023-05-01T04:04:53;100435.13;;;16.58;53.30
21988;BME280;11158;53.404;-1.510;2023-05-01T04:07:38;100436.00;;;16.51;53.42
21988;BME280;11158;53.404;-1.510;2023-05-01T04:10:22;100441.09;;;16.41;54.01
21988;BME280;11158;53.404;-1.510;2023-05-01T04:13:06;100440.66;;;16.44;53.63
21988;BME280;11158;53.404;-1.510;2023-05-01T04:15:50;100436.59;;;16.35;53.52
21988;BME280;11158;53.404;-1.510;2023-05-01T04:18:35;100446.44;;;16.23;53.61
21988;BME280;11158;53.404;-1.510;2023-05-01T04:21:19;100439.06;;;16.37;53.31
21988;BME280;11158;53.404;-1.510;2023-05-01T04:24:03;100448.53;;;16.46;52.92
21988;BME280;11158;53.404;-1.510;2023-05-01T04:26:48;100450.22;;;16.65;52.83
21988;BME280;11158;53.404;-1.510;2023-05-01T04:29:33;100447.72;;;16.89;52.26
21988;BME280;11158;53.404;-1.510;2023-05-01T04:32:17;100442.44;;;17.12;51.52
21988;BME280;11158;53.404;-1.510;2023-05-01T04:35:01;100440.47;;;17.20;50.82
21988;BME280;11158;53.404;-1.510;2023-05-01T04:37:45;100444.34;;;16.93;51.11
21988;BME280;11158;53.404;-1.510;2023-05-01T04:40:30;100431.69;;;16.69;52.97
21988;BME280;11158;53.404;-1.510;2023-05-01T04:43:14;100437.28;;;16.92;52.18
21988;BME280;11158;53.404;-1.510;2023-05-01T04:45:58;100438.31;;;17.10;51.71
21988;BME280;11158;53.404;-1.510;2023-05-01T04:48:42;100440.44;;;16.89;52.39
21988;BME280;11158;53.404;-1.510;2023-05-01T04:51:26;100433.41;;;16.20;53.89
21988;BME280;11158;53.404;-1.510;2023-05-01T04:54:11;100433.94;;;16.03;54.79
21988;BME280;11158;53.404;-1.510;2023-05-01T04:56:55;100430.81;;;16.31;54.20
21988;BME280;11158;53.404;-1.510;2023-05-01T04:59:39;100439.94;;;16.30;53.65
21988;BME280;11158;53.404;-1.510;2023-05-01T05:02:23;100447.00;;;16.06;54.32
21988;BME280;11158;53.404;-1.510;2023-05-01T05:05:08;100455.25;;;16.37;54.05
21988;BME280;11158;53.404;-1.510;2023-05-01T05:07:53;100462.06;;;16.64;53.09
21988;BME280;11158;53.404;-1.510;2023-05-01T05:10:37;100455.75;;;16.95;52.08
21988;BME280;11158;53.404;-1.510;2023-05-01T05:13:21;100450.25;;;17.21;51.36
21988;BME280;11158;53.404;-1.510;2023-05-01T05:16:06;100454.59;;;17.03;51.46
21988;BME280;11158;53.404;-1.510;2023-05-01T05:18:50;100455.25;;;16.37;53.57
21988;BME280;11158;53.404;-1.510;2023-05-01T05:21:34;100457.38;;;16.96;52.22
21988;BME280;11158;53.404;-1.510;2023-05-01T05:24:18;100455.81;;;17.07;51.74
21988;BME280;11158;53.404;-1.510;2023-05-01T05:27:03;100453.00;;;17.32;51.40
21988;BME280;11158;53.404;-1.510;2023-05-01T05:29:47;100457.34;;;17.33;50.87
21988;BME280;11158;53.404;-1.510;2023-05-01T05:32:31;100458.84;;;17.29;50.76
21988;BME280;11158;53.404;-1.510;2023-05-01T05:35:16;100456.03;;;16.87;52.32
21988;BME280;11158;53.404;-1.510;2023-05-01T05:38:00;100450.78;;;16.92;51.75
21988;BME280;11158;53.404;-1.510;2023-05-01T05:40:45;100455.84;;;16.64;52.67
21988;BME280;11158;53.404;-1.510;2023-05-01T05:43:29;100464.00;;;16.32;53.48
21988;BME280;11158;53.404;-1.510;2023-05-01T05:46:13;100464.53;;;16.91;52.43
21988;BME280;11158;53.404;-1.510;2023-05-01T05:48:57;100469.09;;;17.09;51.63
21988;BME280;11158;53.404;-1.510;2023-05-01T05:51:42;100462.63;;;16.91;52.19
21988;BME280;11158;53.404;-1.510;2023-05-01T05:54:26;100460.88;;;17.15;51.63
21988;BME280;11158;53.404;-1.510;2023-05-01T05:57:10;100460.88;;;17.34;50.82
21988;BME280;11158;53.404;-1.510;2023-05-01T05:59:55;100463.97;;;17.37;50.92
21988;BME280;11158;53.404;-1.510;2023-05-01T06:02:40;100455.50;;;17.15;51.43
21988;BME280;11158;53.404;-1.510;2023-05-01T06:05:24;100459.13;;;16.91;51.99
21988;BME280;11158;53.404;-1.510;2023-05-01T06:08:09;100453.88;;;17.45;51.14
21988;BME280;11158;53.404;-1.510;2023-05-01T06:10:53;100456.72;;;17.50;50.43
21988;BME280;11158;53.404;-1.510;2023-05-01T06:13:37;100457.50;;;17.20;51.47
21988;BME280;11158;53.404;-1.510;2023-05-01T06:16:22;100446.31;;;17.35;50.67
21988;BME280;11158;53.404;-1.510;2023-05-01T06:19:06;100456.44;;;16.66;52.55
21988;BME280;11158;53.404;-1.510;2023-05-01T06:21:50;100452.78;;;17.94;49.90
21988;BME280;11158;53.404;-1.510;2023-05-01T06:24:35;100458.56;;;17.68;49.92
21988;BME280;11158;53.404;-1.510;2023-05-01T06:27:19;100462.28;;;17.55;50.32
21988;BME280;11158;53.404;-1.510;2023-05-01T06:30:04;100470.19;;;17.87;49.58
21988;BME280;11158;53.404;-1.510;2023-05-01T06:32:48;100460.25;;;18.23;48.51
21988;BME280;11158;53.404;-1.510;2023-05-01T06:35:33;100470.75;;;18.54;47.77
21988;BME280;11158;53.404;-1.510;2023-05-01T06:38:17;100472.03;;;18.75;46.90
21988;BME280;11158;53.404;-1.510;2023-05-01T06:41:03;100479.28;;;18.16;46.90
21988;BME280;11158;53.404;-1.510;2023-05-01T06:43:47;100491.03;;;17.79;48.98
21988;BME280;11158;53.404;-1.510;2023-05-01T06:46:31;100488.88;;;18.42;46.88
21988;BME280;11158;53.404;-1.510;2023-05-01T06:49:16;100497.69;;;18.37;46.73
21988;BME280;11158;53.404;-1.510;2023-05-01T06:52:00;100500.94;;;18.28;47.20
21988;BME280;11158;53.404;-1.510;2023-05-01T06:54:44;100507.19;;;17.37;48.74
21988;BME280;11158;53.404;-1.510;2023-05-01T06:57:28;100501.19;;;17.66;48.74
21988;BME280;11158;53.404;-1.510;2023-05-01T07:00:13;100497.22;;;18.40;46.86
21988;BME280;11158;53.404;-1.510;2023-05-01T07:02:58;100497.59;;;18.91;45.43
21988;BME280;11158;53.404;-1.510;2023-05-01T07:05:42;100494.72;;;19.21;44.61
21988;BME280;11158;53.404;-1.510;2023-05-01T07:08:27;100496.13;;;19.36;44.42
21988;BME280;11158;53.404;-1.510;2023-05-01T07:11:11;100500.41;;;19.49;44.31
21988;BME280;11158;53.404;-1.510;2023-05-01T07:13:55;100500.25;;;19.96;43.34
21988;BME280;11158;53.404;-1.510;2023-05-01T07:16:39;100493.19;;;19.66;43.93
21988;BME280;11158;53.404;-1.510;2023-05-01T07:19:24;100498.03;;;19.64;44.20
21988;BME280;11158;53.404;-1.510;2023-05-01T07:22:09;100505.91;;;21.12;41.21
21988;BME280;11158;53.404;-1.510;2023-05-01T07:24:53;100505.28;;;21.05;40.50
21988;BME280;11158;53.404;-1.510;2023-05-01T07:27:37;100506.66;;;20.69;41.18
21988;BME280;11158;53.404;-1.510;2023-05-01T07:30:21;100509.47;;;20.57;42.10
21988;BME280;11158;53.404;-1.510;2023-05-01T07:33:06;100521.19;;;19.43;44.40
21988;BME280;11158;53.404;-1.510;2023-05-01T07:35:50;100527.38;;;18.56;46.37
21988;BME280;11158;53.404;-1.510;2023-05-01T07:38:34;100518.56;;;18.96;45.54
21988;BME280;11158;53.404;-1.510;2023-05-01T07:41:18;100531.41;;;18.89;46.03
21988;BME280;11158;53.404;-1.510;2023-05-01T07:44:02;100532.88;;;18.49;47.04
21988;BME280;11158;53.404;-1.510;2023-05-01T07:46:47;100532.09;;;18.84;46.09
21988;BME280;11158;53.404;-1.510;2023-05-01T07:49:35;100536.84;;;19.53;44.91
21988;BME280;11158;53.404;-1.510;2023-05-01T07:52:22;100535.28;;;19.57;44.20
21988;BME280;11158;53.404;-1.510;2023-05-01T07:55:07;100535.16;;;19.75;44.27
21988;BME280;11158;53.404;-1.510;2023-05-01T07:57:52;100534.22;;;19.17;45.20
21988;BME280;11158;53.404;-1.510;2023-05-01T08:00:35;100535.13;;;18.64;46.54
21988;BME280;11158;53.404;-1.510;2023-05-01T08:03:19;100540.19;;;18.60;46.53
21988;BME280;11158;53.404;-1.510;2023-05-01T08:06:04;100544.53;;;18.61;46.57
21988;BME280;11158;53.404;-1.510;2023-05-01T08:08:49;100540.94;;;18.91;46.15
21988;BME280;11158;53.404;-1.510;2023-05-01T08:11:32;100547.03;;;19.22;44.95
21988;BME280;11158;53.404;-1.510;2023-05-01T08:14:16;100544.00;;;19.07;45.61
21988;BME280;11158;53.404;-1.510;2023-05-01T08:17:02;100543.16;;;18.82;46.15
21988;BME280;11158;53.404;-1.510;2023-05-01T08:19:46;100543.88;;;19.77;44.24
21988;BME280;11158;53.404;-1.510;2023-05-01T08:22:30;100543.72;;;18.61;46.27
21988;BME280;11158;53.404;-1.510;2023-05-01T08:25:15;100552.88;;;18.48;46.18
21988;BME280;11158;53.404;-1.510;2023-05-01T08:27:59;100559.00;;;18.02;47.19
21988;BME280;11158;53.404;-1.510;2023-05-01T08:30:43;100554.50;;;18.26;46.52
21988;BME280;11158;53.404;-1.510;2023-05-01T08:33:27;100554.31;;;18.62;44.92
21988;BME280;11158;53.404;-1.510;2023-05-01T08:36:11;100554.94;;;19.12;44.32
21988;BME280;11158;53.404;-1.510;2023-05-01T08:38:55;100557.19;;;19.03;43.96
21988;BME280;11158;53.404;-1.510;2023-05-01T08:41:39;100568.50;;;18.34;45.52
21988;BME280;11158;53.404;-1.510;2023-05-01T08:44:25;100574.44;;;17.64;47.68
21988;BME280;11158;53.404;-1.510;2023-05-01T08:47:11;100576.28;;;18.42;45.92
21988;BME280;11158;53.404;-1.510;2023-05-01T08:49:58;100577.56;;;18.40;45.18
21988;BME280;11158;53.404;-1.510;2023-05-01T08:52:43;100572.84;;;18.89;44.76
21988;BME280;11158;53.404;-1.510;2023-05-01T08:55:29;100565.28;;;19.03;43.89
21988;BME280;11158;53.404;-1.510;2023-05-01T08:58:16;100567.41;;;18.24;44.98
21988;BME280;11158;53.404;-1.510;2023-05-01T09:01:01;100565.03;;;18.69;44.67
21988;BME280;11158;53.404;-1.510;2023-05-01T09:03:46;100575.72;;;18.52;44.59
21988;BME280;11158;53.404;-1.510;2023-05-01T09:06:32;100568.78;;;18.56;44.89
21988;BME280;11158;53.404;-1.510;2023-05-01T09:09:17;100572.84;;;18.77;44.22
21988;BME280;11158;53.404;-1.510;2023-05-01T09:12:33;100573.72;;;18.71;44.67
21988;BME280;11158;53.404;-1.510;2023-05-01T09:15:18;100584.25;;;18.26;46.03
21988;BME280;11158;53.404;-1.510;2023-05-01T09:18:03;100576.78;;;18.51;44.75
21988;BME280;11158;53.404;-1.510;2023-05-01T09:20:48;100579.31;;;19.12;44.13
21988;BME280;11158;53.404;-1.510;2023-05-01T09:23:32;100571.78;;;19.14;43.21
21988;BME280;11158;53.404;-1.510;2023-05-01T09:26:18;100569.78;;;19.21;43.65
21988;BME280;11158;53.404;-1.510;2023-05-01T09:29:02;100569.28;;;19.36;42.78
21988;BME280;11158;53.404;-1.510;2023-05-01T09:31:47;100575.50;;;20.00;41.85
21988;BME280;11158;53.404;-1.510;2023-05-01T09:34:31;100563.16;;;21.28;39.57
21988;BME280;11158;53.404;-1.510;2023-05-01T09:37:29;100576.59;;;19.87;40.22
21988;BME280;11158;53.404;-1.510;2023-05-01T09:40:13;100577.78;;;20.37;40.25
21988;BME280;11158;53.404;-1.510;2023-05-01T09:42:57;100564.81;;;20.90;38.18
21988;BME280;11158;53.404;-1.510;2023-05-01T09:45:41;100572.47;;;19.85;39.90
21988;BME280;11158;53.404;-1.510;2023-05-01T09:48:26;100576.97;;;19.67;40.27
21988;BME280;11158;53.404;-1.510;2023-05-01T09:54:04;100582.38;;;20.82;38.82
21988;BME280;11158;53.404;-1.510;2023-05-01T09:56:49;100585.38;;;19.78;40.32
21988;BME280;11158;53.404;-1.510;2023-05-01T09:59:33;100570.66;;;20.82;38.90
21988;BME280;11158;53.404;-1.510;2023-05-01T10:02:27;100578.84;;;21.82;36.86
21988;BME280;11158;53.404;-1.510;2023-05-01T10:05:13;100570.63;;;21.54;37.07
21988;BME280;11158;53.404;-1.510;2023-05-01T10:08:00;100576.97;;;21.87;35.98
21988;BME280;11158;53.404;-1.510;2023-05-01T10:10:58;100569.22;;;20.57;37.37
21988;BME280;11158;53.404;-1.510;2023-05-01T10:13:43;100573.78;;;21.07;36.09
21988;BME280;11158;53.404;-1.510;2023-05-01T10:16:29;100576.06;;;21.16;35.83
21988;BME280;11158;53.404;-1.510;2023-05-01T10:19:14;100575.59;;;21.02;36.81
21988;BME280;11158;53.404;-1.510;2023-05-01T10:21:59;100573.09;;;22.05;35.12
21988;BME280;11158;53.404;-1.510;2023-05-01T10:24:44;100592.09;;;20.33;37.79
21988;BME280;11158;53.404;-1.510;2023-05-01T10:27:29;100592.44;;;20.07;38.93
21988;BME280;11158;53.404;-1.510;2023-05-01T10:30:15;100591.25;;;19.86;38.76
21988;BME280;11158;53.404;-1.510;2023-05-01T10:33:01;100572.22;;;20.15;37.75
21988;BME280;11158;53.404;-1.510;2023-05-01T10:35:48;100577.63;;;20.44;37.85
21988;BME280;11158;53.404;-1.510;2023-05-01T10:38:37;100569.06;;;21.20;36.37
21988;BME280;11158;53.404;-1.510;2023-05-01T10:44:42;100583.28;;;20.25;35.98
21988;BME280;11158;53.404;-1.510;2023-05-01T10:50:12;100602.84;;;19.46;39.25
21988;BME280;11158;53.404;-1.510;2023-05-01T10:55:58;100617.72;;;19.09;41.70
21988;BME280;11158;53.404;-1.510;2023-05-01T11:01:43;100629.88;;;19.06;41.35
21988;BME280;11158;53.404;-1.510;2023-05-01T11:04:44;100633.28;;;19.13;40.64
21988;BME280;11158;53.404;-1.510;2023-05-01T11:07:30;100621.97;;;19.04;41.05
21988;BME280;11158;53.404;-1.510;2023-05-01T11:10:26;100627.00;;;19.48;40.91
21988;BME280;11158;53.404;-1.510;2023-05-01T11:13:10;100623.56;;;20.17;39.67
21988;BME280;11158;53.404;-1.510;2023-05-01T11:15:54;100624.09;;;20.93;38.15
21988;BME280;11158;53.404;-1.510;2023-05-01T11:18:45;100628.03;;;20.23;40.16
21988;BME280;11158;53.404;-1.510;2023-05-01T11:21:34;100620.69;;;21.20;37.55
21988;BME280;11158;53.404;-1.510;2023-05-01T11:24:19;100621.06;;;20.89;37.31
21988;BME280;11158;53.404;-1.510;2023-05-01T11:27:03;100613.88;;;20.66;36.80
21988;BME280;11158;53.404;-1.510;2023-05-01T11:29:49;100615.34;;;21.08;35.79
21988;BME280;11158;53.404;-1.510;2023-05-01T11:32:33;100631.25;;;19.79;36.13
21988;BME280;11158;53.404;-1.510;2023-05-01T11:38:04;100616.41;;;21.41;33.97
21988;BME280;11158;53.404;-1.510;2023-05-01T11:40:53;100621.69;;;20.80;34.73
21988;BME280;11158;53.404;-1.510;2023-05-01T11:43:54;100622.38;;;20.87;34.37
21988;BME280;11158;53.404;-1.510;2023-05-01T11:46:39;100626.09;;;19.95;36.26
21988;BME280;11158;53.404;-1.510;2023-05-01T11:49:26;100634.88;;;20.88;35.71
21988;BME280;11158;53.404;-1.510;2023-05-01T11:52:14;100633.56;;;20.74;35.24
21988;BME280;11158;53.404;-1.510;2023-05-01T11:54:58;100631.88;;;21.40;34.68
21988;BME280;11158;53.404;-1.510;2023-05-01T11:57:48;100628.88;;;20.40;37.10
21988;BME280;11158;53.404;-1.510;2023-05-01T12:00:35;100635.19;;;20.75;34.87
21988;BME280;11158;53.404;-1.510;2023-05-01T12:03:21;100630.72;;;21.97;33.03
21988;BME280;11158;53.404;-1.510;2023-05-01T12:06:07;100624.91;;;22.37;31.48
21988;BME280;11158;53.404;-1.510;2023-05-01T12:08:51;100633.94;;;21.33;32.90
21988;BME280;11158;53.404;-1.510;2023-05-01T12:11:37;100635.97;;;20.87;34.54
21988;BME280;11158;53.404;-1.510;2023-05-01T12:14:21;100640.16;;;21.67;33.83
21988;BME280;11158;53.404;-1.510;2023-05-01T12:17:08;100648.94;;;21.74;34.21
21988;BME280;11158;53.404;-1.510;2023-05-01T12:19:54;100655.75;;;20.70;36.40
21988;BME280;11158;53.404;-1.510;2023-05-01T12:22:48;100645.22;;;20.00;37.92
21988;BME280;11158;53.404;-1.510;2023-05-01T12:25:34;100647.81;;;19.95;37.98
21988;BME280;11158;53.404;-1.510;2023-05-01T12:28:19;100657.91;;;19.71;39.79
21988;BME280;11158;53.404;-1.510;2023-05-01T12:31:03;100659.78;;;19.70;40.06
21988;BME280;11158;53.404;-1.510;2023-05-01T12:34:03;100653.53;;;19.11;41.40
21988;BME280;11158;53.404;-1.510;2023-05-01T12:36:53;100651.19;;;19.50;40.95
21988;BME280;11158;53.404;-1.510;2023-05-01T12:39:39;100644.66;;;19.74;40.36
21988;BME280;11158;53.404;-1.510;2023-05-01T12:42:25;100644.66;;;20.89;38.73
21988;BME280;11158;53.404;-1.510;2023-05-01T12:45:09;100643.94;;;21.10;37.04
21988;BME280;11158;53.404;-1.510;2023-05-01T12:47:57;100647.34;;;21.40;36.46
21988;BME280;11158;53.404;-1.510;2023-05-01T12:50:41;100659.88;;;20.56;36.83
21988;BME280;11158;53.404;-1.510;2023-05-01T12:53:27;100658.59;;;20.92;37.10
21988;BME280;11158;53.404;-1.510;2023-05-01T12:56:22;100672.41;;;20.74;38.57
21988;BME280;11158;53.404;-1.510;2023-05-01T12:59:19;100673.56;;;20.95;38.26
21988;BME280;11158;53.404;-1.510;2023-05-01T13:02:10;100671.53;;;21.19;36.99
21988;BME280;11158;53.404;-1.510;2023-05-01T13:05:09;100673.09;;;21.15;37.21
21988;BME280;11158;53.404;-1.510;2023-05-01T13:07:53;100670.38;;;20.98;36.40
21988;BME280;11158;53.404;-1.510;2023-05-01T13:10:38;100668.47;;;20.99;36.16
21988;BME280;11158;53.404;-1.510;2023-05-01T13:13:42;100666.72;;;21.82;35.13
21988;BME280;11158;53.404;-1.510;2023-05-01T13:16:26;100673.84;;;21.44;35.20
21988;BME280;11158;53.404;-1.510;2023-05-01T13:19:11;100682.28;;;21.31;35.58
21988;BME280;11158;53.404;-1.510;2023-05-01T13:21:56;100679.19;;;21.05;36.70
21988;BME280;11158;53.404;-1.510;2023-05-01T13:24:42;100684.94;;;21.26;37.34
21988;BME280;11158;53.404;-1.510;2023-05-01T13:27:27;100689.41;;;20.98;38.22
21988;BME280;11158;53.404;-1.510;2023-05-01T13:30:12;100688.53;;;20.81;39.09
21988;BME280;11158;53.404;-1.510;2023-05-01T13:32:56;100687.97;;;21.63;37.16
21988;BME280;11158;53.404;-1.510;2023-05-01T13:35:40;100686.38;;;20.66;37.94
21988;BME280;11158;53.404;-1.510;2023-05-01T13:38:24;100700.28;;;20.00;38.65
21988;BME280;11158;53.404;-1.510;2023-05-01T13:41:13;100682.75;;;20.60;38.52
21988;BME280;11158;53.404;-1.510;2023-05-01T13:43:58;100690.66;;;20.21;38.28
21988;BME280;11158;53.404;-1.510;2023-05-01T13:46:42;100695.72;;;21.38;36.86
21988;BME280;11158;53.404;-1.510;2023-05-01T13:49:26;100697.44;;;20.93;37.17
21988;BME280;11158;53.404;-1.510;2023-05-01T13:52:16;100704.09;;;20.68;37.53
21988;BME280;11158;53.404;-1.510;2023-05-01T13:55:01;100697.25;;;20.54;38.64
21988;BME280;11158;53.404;-1.510;2023-05-01T13:57:49;100700.75;;;21.63;36.38
21988;BME280;11158;53.404;-1.510;2023-05-01T14:00:33;100705.47;;;21.17;36.63
21988;BME280;11158;53.404;-1.510;2023-05-01T14:03:18;100701.03;;;21.66;36.08
21988;BME280;11158;53.404;-1.510;2023-05-01T14:06:02;100701.78;;;21.62;35.68
21988;BME280;11158;53.404;-1.510;2023-05-01T14:08:47;100704.56;;;21.45;36.79
21988;BME280;11158;53.404;-1.510;2023-05-01T14:11:33;100704.50;;;22.45;35.36
21988;BME280;11158;53.404;-1.510;2023-05-01T14:14:18;100703.22;;;21.86;35.73
21988;BME280;11158;53.404;-1.510;2023-05-01T14:17:02;100707.88;;;20.84;38.19
21988;BME280;11158;53.404;-1.510;2023-05-01T14:19:50;100698.03;;;20.95;37.44
21988;BME280;11158;53.404;-1.510;2023-05-01T14:25:28;100707.44;;;20.47;38.88
21988;BME280;11158;53.404;-1.510;2023-05-01T14:28:14;100703.88;;;21.04;38.38
21988;BME280;11158;53.404;-1.510;2023-05-01T14:30:58;100708.81;;;20.33;39.65
21988;BME280;11158;53.404;-1.510;2023-05-01T14:33:43;100713.16;;;20.34;39.32
21988;BME280;11158;53.404;-1.510;2023-05-01T14:36:28;100711.63;;;19.85;40.93
21988;BME280;11158;53.404;-1.510;2023-05-01T14:39:17;100707.22;;;20.48;39.79
21988;BME280;11158;53.404;-1.510;2023-05-01T14:42:01;100717.28;;;19.96;40.32
21988;BME280;11158;53.404;-1.510;2023-05-01T14:44:47;100715.38;;;19.96;41.16
21988;BME280;11158;53.404;-1.510;2023-05-01T14:47:30;100697.06;;;20.15;40.17